createdAt,value
2023-04-24T00:01:38.149Z,97.00
2023-04-24T00:04:05.557Z,97.19
2023-04-24T00:06:35.726Z,97.36
2023-04-24T00:09:03.725Z,97.10
2023-04-24T00:11:31.257Z,97.10
2023-04-24T00:13:58.487Z,97.06
2023-04-24T00:16:25.827Z,97.52
2023-04-24T00:18:57.341Z,97.34
2023-04-24T00:21:26.883Z,97.38
2023-04-24T00:23:54.535Z,96.96
2023-04-24T00:26:21.600Z,97.07
2023-04-24T00:28:48.847Z,96.75
2023-04-24T00:31:16.104Z,96.79
2023-04-24T00:33:43.212Z,96.62
2023-04-24T00:36:10.834Z,96.11
2023-04-24T00:38:37.985Z,95.74
2023-04-24T00:41:05.344Z,95.66
2023-04-24T00:43:32.915Z,95.55
2023-04-24T00:46:02.470Z,95.29
2023-04-24T00:48:29.638Z,95.40
2023-04-24T00:50:56.812Z,94.97
2023-04-24T00:53:23.844Z,95.20
2023-04-24T00:55:51.859Z,95.36
2023-04-24T00:58:19.784Z,95.29
2023-04-24T01:00:47.400Z,94.72
2023-04-24T01:03:15.395Z,94.74
2023-04-24T01:05:43.497Z,95.05
2023-04-24T01:08:11.254Z,94.92
2023-04-24T01:10:40.176Z,94.97
2023-04-24T01:13:09.540Z,94.76
2023-04-24T01:15:37.319Z,94.63
2023-04-24T01:18:05.391Z,94.21
2023-04-24T01:20:33.446Z,94.50
2023-04-24T01:23:01.658Z,94.31
2023-04-24T01:25:29.493Z,94.30
2023-04-24T01:27:58.239Z,94.37
2023-04-24T01:30:25.808Z,94.27
2023-04-24T01:32:53.485Z,94.51
2023-04-24T01:35:21.376Z,94.35
2023-04-24T01:37:48.546Z,93.91
2023-04-24T01:40:15.846Z,93.96
2023-04-24T01:42:43.781Z,93.59
2023-04-24T01:45:13.094Z,93.93
2023-04-24T01:47:40.813Z,93.78
2023-04-24T01:50:08.694Z,93.46
2023-04-24T01:52:37.195Z,93.65
2023-04-24T01:55:05.725Z,94.12
2023-04-24T01:57:33.146Z,93.53
2023-04-24T02:00:00.670Z,93.59
2023-04-24T02:02:31.145Z,93.62
2023-04-24T02:04:58.571Z,93.58
2023-04-24T02:07:25.657Z,93.06
2023-04-24T02:09:52.836Z,93.36
2023-04-24T02:12:19.905Z,93.04
2023-04-24T02:14:46.954Z,92.93
2023-04-24T02:17:15.323Z,92.93
2023-04-24T02:19:42.634Z,92.90
2023-04-24T02:22:11.776Z,92.77
2023-04-24T02:24:39.722Z,92.31
2023-04-24T02:27:07.762Z,92.50
2023-04-24T02:29:35.042Z,92.35
2023-04-24T02:32:02.265Z,92.81
2023-04-24T02:34:29.306Z,92.62
2023-04-24T02:36:56.399Z,92.33
2023-04-24T02:39:23.627Z,92.08
2023-04-24T02:41:50.798Z,91.90
2023-04-24T02:44:18.542Z,92.35
2023-04-24T02:46:45.935Z,92.20
2023-04-24T02:49:13.550Z,92.48
2023-04-24T02:51:42.357Z,91.89
2023-04-24T02:54:11.221Z,91.99
2023-04-24T02:56:38.438Z,92.43
2023-04-24T02:59:07.286Z,92.61
2023-04-24T03:01:34.832Z,93.04
2023-04-24T03:04:02.122Z,93.74
2023-04-24T03:06:29.713Z,94.54
2023-04-24T03:08:56.755Z,94.53
2023-04-24T03:11:24.093Z,95.35
2023-04-24T03:13:51.265Z,95.87
2023-04-24T03:16:18.403Z,95.81
2023-04-24T03:18:45.461Z,95.76
2023-04-24T03:21:13.705Z,96.08
2023-04-24T03:23:41.704Z,95.97
2023-04-24T03:26:10.683Z,95.03
2023-04-24T03:28:43.529Z,95.70
2023-04-24T03:31:11.452Z,96.24
2023-04-24T03:33:38.845Z,96.28
2023-04-24T03:36:07.864Z,96.98
2023-04-24T03:38:39.576Z,97.23
2023-04-24T03:41:31.397Z,96.92
2023-04-24T03:44:11.971Z,97.32
2023-04-24T03:46:39.278Z,96.70
2023-04-24T03:49:07.412Z,96.83
2023-04-24T03:51:37.934Z,96.93
2023-04-24T03:54:25.607Z,96.41
2023-04-24T03:56:54.263Z,96.56
2023-04-24T03:59:21.488Z,96.74
2023-04-24T04:01:59.208Z,97.31
2023-04-24T04:04:26.892Z,97.52
2023-04-24T04:06:54.492Z,98.35
2023-04-24T04:09:22.687Z,98.70
2023-04-24T04:11:49.807Z,99.31
2023-04-24T04:14:16.972Z,99.44
2023-04-24T04:16:47.799Z,99.43
2023-04-24T04:19:15.599Z,99.61
2023-04-24T04:21:42.784Z,98.77
2023-04-24T04:24:17.776Z,98.58
2023-04-24T04:26:48.175Z,98.55
2023-04-24T04:29:29.065Z,98.13
2023-04-24T04:31:56.503Z,98.09
2023-04-24T04:34:24.442Z,97.37
2023-04-24T04:36:52.736Z,96.54
2023-04-24T04:39:33.123Z,96.15
2023-04-24T04:42:03.334Z,96.01
2023-04-24T04:44:37.461Z,95.96
2023-04-24T04:47:06.692Z,95.85
2023-04-24T04:49:36.452Z,95.90
2023-04-24T04:52:06.135Z,95.72
2023-04-24T04:54:33.314Z,95.71
2023-04-24T04:57:04.144Z,95.50
2023-04-24T04:59:31.933Z,95.50
2023-04-24T05:02:04.846Z,95.68
2023-04-24T05:04:32.671Z,95.59
2023-04-24T05:07:00.626Z,95.47
2023-04-24T05:09:30.716Z,95.67
2023-04-24T05:12:03.360Z,94.70
2023-04-24T05:14:34.972Z,94.84
2023-04-24T05:17:02.340Z,94.46
2023-04-24T05:19:31.142Z,94.62
2023-04-24T05:21:58.345Z,94.55
2023-04-24T05:24:25.691Z,94.88
2023-04-24T05:27:14.815Z,94.87
2023-04-24T05:29:42.459Z,95.42
2023-04-24T05:32:10.262Z,95.34
2023-04-24T05:34:37.985Z,95.24
2023-04-24T05:37:09.272Z,95.08
2023-04-24T05:39:36.855Z,95.08
2023-04-24T05:42:05.651Z,94.32
2023-04-24T05:44:32.767Z,93.68
2023-04-24T05:47:00.273Z,94.05
2023-04-24T05:49:27.446Z,94.27
2023-04-24T05:51:55.164Z,93.94
2023-04-24T05:54:22.893Z,93.60
2023-04-24T05:56:51.503Z,93.24
2023-04-24T05:59:28.364Z,93.47
2023-04-24T06:01:55.503Z,93.51
2023-04-24T06:04:25.763Z,93.37
2023-04-24T06:06:57.045Z,93.72
2023-04-24T06:09:24.872Z,94.16
2023-04-24T06:11:55.547Z,94.24
2023-04-24T06:14:26.418Z,94.00
2023-04-24T06:17:13.754Z,93.67
2023-04-24T06:19:42.180Z,92.40
2023-04-24T06:22:11.045Z,91.96
2023-04-24T06:24:38.476Z,91.84
2023-04-24T06:27:05.662Z,91.58
2023-04-24T06:29:34.624Z,91.35
2023-04-24T06:32:01.861Z,90.92
2023-04-24T06:34:29.097Z,91.11
2023-04-24T06:36:56.925Z,91.07
2023-04-24T06:39:23.957Z,90.83
2023-04-24T06:41:51.327Z,91.41
2023-04-24T06:44:22.612Z,92.04
2023-04-24T06:46:49.722Z,91.60
2023-04-24T06:49:17.350Z,91.35
2023-04-24T06:51:44.443Z,90.91
2023-04-24T06:54:11.512Z,90.17
2023-04-24T06:56:38.751Z,88.77
2023-04-24T06:59:05.941Z,87.92
2023-04-24T07:01:33.077Z,87.77
2023-04-24T07:04:00.929Z,85.98
2023-04-24T07:06:28.567Z,85.12
2023-04-24T07:11:24.936Z,83.21
2023-04-24T07:13:52.123Z,82.66
2023-04-24T07:16:19.502Z,81.41
2023-04-24T07:18:46.674Z,81.35
2023-04-24T07:21:13.741Z,80.84
2023-04-24T07:23:42.471Z,79.82
2023-04-24T07:26:09.692Z,79.66
2023-04-24T07:28:36.847Z,80.58
2023-04-24T07:31:04.201Z,79.09
2023-04-24T07:33:31.587Z,78.10
2023-04-24T07:35:58.888Z,77.40
2023-04-24T07:38:27.140Z,77.66
2023-04-24T07:40:54.255Z,76.98
2023-04-24T07:43:22.035Z,75.66
2023-04-24T07:45:49.557Z,75.48
2023-04-24T07:48:17.534Z,74.91
2023-04-24T07:50:45.645Z,74.83
2023-04-24T07:53:12.677Z,73.08
2023-04-24T07:55:39.732Z,72.14
2023-04-24T07:58:06.942Z,72.14
2023-04-24T08:00:34.166Z,70.80
2023-04-24T08:03:01.509Z,70.15
2023-04-24T08:05:30.064Z,70.20
2023-04-24T08:07:57.329Z,69.24
2023-04-24T08:10:25.043Z,69.53
2023-04-24T08:12:52.582Z,67.14
2023-04-24T08:15:19.868Z,67.79
2023-04-24T08:17:46.973Z,67.84
2023-04-24T08:20:16.864Z,67.69
2023-04-24T08:22:44.586Z,67.44
2023-04-24T08:25:12.648Z,67.24
2023-04-24T08:27:40.111Z,67.46
2023-04-24T08:30:08.527Z,67.94
2023-04-24T08:32:35.842Z,67.70
2023-04-24T08:35:03.132Z,67.62
2023-04-24T08:37:30.970Z,68.08
2023-04-24T08:39:58.260Z,67.45
2023-04-24T08:42:25.904Z,68.10
2023-04-24T08:44:53.194Z,67.59
2023-04-24T08:47:22.015Z,67.87
2023-04-24T08:49:51.202Z,67.64
2023-04-24T08:52:20.849Z,67.37
2023-04-24T08:54:48.896Z,66.76
2023-04-24T08:57:16.564Z,66.53
2023-04-24T08:59:44.702Z,64.56
2023-04-24T09:02:13.248Z,63.74
2023-04-24T09:04:42.227Z,63.38
2023-04-24T09:07:11.846Z,62.98
2023-04-24T09:09:40.508Z,64.15
2023-04-24T09:12:08.047Z,64.28
2023-04-24T09:14:37.401Z,63.19
2023-04-24T09:17:04.728Z,63.02
2023-04-24T09:19:31.883Z,63.33
2023-04-24T09:21:59.087Z,62.65
2023-04-24T09:24:26.334Z,62.52
2023-04-24T09:27:00.236Z,62.56
2023-04-24T09:29:27.525Z,62.60
2023-04-24T09:31:54.925Z,63.63
2023-04-24T09:34:27.054Z,63.76
2023-04-24T09:36:55.484Z,63.40
2023-04-24T09:39:22.853Z,63.88
2023-04-24T09:41:51.921Z,63.66
2023-04-24T09:44:24.265Z,64.80
2023-04-24T09:46:54.692Z,64.85
2023-04-24T09:49:23.956Z,65.63
2023-04-24T09:51:51.175Z,64.21
2023-04-24T09:54:23.765Z,62.05
2023-04-24T09:56:52.074Z,60.53
2023-04-24T09:59:20.782Z,60.10
2023-04-24T10:01:50.605Z,59.66
2023-04-24T10:04:22.977Z,58.75
2023-04-24T10:06:51.293Z,59.51
2023-04-24T10:09:23.517Z,59.39
2023-04-24T10:11:53.049Z,60.14
2023-04-24T10:14:22.617Z,61.40
2023-04-24T10:16:51.647Z,62.25
2023-04-24T10:19:21.840Z,61.62
2023-04-24T10:21:49.318Z,62.34
2023-04-24T10:24:18.283Z,62.17
2023-04-24T10:26:47.216Z,61.81
2023-04-24T10:29:16.725Z,61.36
2023-04-24T10:31:46.806Z,61.33
2023-04-24T10:34:16.749Z,60.82
2023-04-24T10:36:49.289Z,59.99
2023-04-24T10:39:17.852Z,58.78
2023-04-24T10:41:45.942Z,59.02
2023-04-24T10:44:16.117Z,58.05
2023-04-24T10:46:49.399Z,58.86
2023-04-24T10:49:16.612Z,59.24
2023-04-24T10:51:51.098Z,59.18
2023-04-24T10:54:36.077Z,59.78
2023-04-24T10:57:31.869Z,60.16
2023-04-24T11:00:22.274Z,61.60
2023-04-24T11:02:51.786Z,61.40
2023-04-24T11:05:20.163Z,60.92
2023-04-24T11:08:17.129Z,60.08
2023-04-24T11:10:48.742Z,60.39
2023-04-24T11:13:22.390Z,59.14
2023-04-24T11:16:27.184Z,60.14
2023-04-24T11:19:02.749Z,60.21
2023-04-24T11:21:56.755Z,60.56
2023-04-24T11:24:25.163Z,61.12
2023-04-24T11:26:57.842Z,61.16
2023-04-24T11:29:40.282Z,60.68
2023-04-24T11:32:18.561Z,60.22
2023-04-24T11:34:50.494Z,59.30
2023-04-24T11:37:17.899Z,60.06
2023-04-24T11:39:45.124Z,59.88
2023-04-24T11:42:15.625Z,59.63
2023-04-24T11:44:44.024Z,60.48
2023-04-24T11:47:11.271Z,60.93
2023-04-24T11:49:38.847Z,60.51
2023-04-24T11:52:06.537Z,60.32
2023-04-24T11:54:33.946Z,60.46
2023-04-24T11:57:05.720Z,61.14
2023-04-24T11:59:38.148Z,61.29
2023-04-24T12:02:07.142Z,62.75
2023-04-24T12:04:42.458Z,63.50
2023-04-24T12:07:09.975Z,63.95
2023-04-24T12:09:57.487Z,64.15
2023-04-24T12:12:27.637Z,64.10
2023-04-24T12:14:57.200Z,64.60
2023-04-24T12:17:32.434Z,65.09
2023-04-24T12:20:04.529Z,66.10
2023-04-24T12:22:52.299Z,66.49
2023-04-24T12:25:20.510Z,66.69
2023-04-24T12:27:53.771Z,66.76
2023-04-24T12:30:21.025Z,66.39
2023-04-24T12:32:50.697Z,67.17
2023-04-24T12:35:22.129Z,67.06
2023-04-24T12:37:49.421Z,66.56
2023-04-24T12:40:17.100Z,66.11
2023-04-24T12:42:49.965Z,65.43
2023-04-24T12:45:18.325Z,64.72
2023-04-24T12:47:47.000Z,65.25
2023-04-24T12:50:16.763Z,64.14
2023-04-24T12:52:44.843Z,63.54
2023-04-24T12:55:13.353Z,63.87
2023-04-24T12:57:41.211Z,63.82
2023-04-24T13:00:09.769Z,64.47
2023-04-24T13:02:37.716Z,64.68
2023-04-24T13:05:05.423Z,65.06
2023-04-24T13:07:32.677Z,65.04
2023-04-24T13:09:59.776Z,64.98
2023-04-24T13:12:27.718Z,65.20
2023-04-24T13:14:55.213Z,65.24
2023-04-24T13:17:23.655Z,65.69
2023-04-24T13:19:52.774Z,65.45
2023-04-24T13:22:20.037Z,65.48
2023-04-24T13:24:49.713Z,64.89
2023-04-24T13:27:17.609Z,65.06
2023-04-24T13:29:45.221Z,65.17
2023-04-24T13:32:12.497Z,65.09
2023-04-24T13:34:40.297Z,65.59
2023-04-24T13:37:09.195Z,66.34
2023-04-24T13:39:36.819Z,65.36
2023-04-24T13:42:05.256Z,65.39
2023-04-24T13:44:32.757Z,64.84
2023-04-24T13:47:00.201Z,65.08
2023-04-24T13:49:27.762Z,64.87
2023-04-24T13:51:56.881Z,64.46
2023-04-24T13:54:27.324Z,62.80
2023-04-24T13:56:54.662Z,62.15
2023-04-24T13:59:25.064Z,62.45
2023-04-24T14:01:51.960Z,62.01
2023-04-24T14:04:19.379Z,61.44
2023-04-24T14:06:46.650Z,61.02
2023-04-24T14:09:14.183Z,61.31
2023-04-24T14:11:41.814Z,61.30
2023-04-24T14:14:09.371Z,61.13
2023-04-24T14:16:36.631Z,61.60
2023-04-24T14:19:03.778Z,61.66
2023-04-24T14:21:31.650Z,61.94
2023-04-24T14:23:58.775Z,62.03
2023-04-24T14:26:26.157Z,62.91
2023-04-24T14:28:58.176Z,63.61
2023-04-24T14:31:34.817Z,63.21
2023-04-24T14:34:02.057Z,63.50
2023-04-24T14:36:29.242Z,63.91
2023-04-24T14:38:56.929Z,63.81
2023-04-24T14:41:24.075Z,63.78
2023-04-24T14:43:51.275Z,64.03
2023-04-24T14:46:18.513Z,64.70
2023-04-24T14:48:46.223Z,64.66
2023-04-24T14:51:13.298Z,65.19
2023-04-24T14:53:40.463Z,64.92
2023-04-24T14:56:07.657Z,64.50
2023-04-24T14:58:35.617Z,64.76
2023-04-24T15:01:02.735Z,64.38
2023-04-24T15:03:30.759Z,63.74
2023-04-24T15:05:59.095Z,65.13
2023-04-24T15:08:26.185Z,65.40
2023-04-24T15:10:53.498Z,66.23
2023-04-24T15:13:21.063Z,66.49
2023-04-24T15:15:48.745Z,66.14
2023-04-24T15:18:15.924Z,66.28
2023-04-24T15:20:43.390Z,66.32
2023-04-24T15:23:10.821Z,65.89
2023-04-24T15:25:39.347Z,65.58
2023-04-24T15:28:07.086Z,65.73
2023-04-24T15:30:34.464Z,65.85
2023-04-24T15:33:02.906Z,66.55
2023-04-24T15:35:30.327Z,66.27
2023-04-24T15:37:57.456Z,66.05
2023-04-24T15:40:24.661Z,66.56
2023-04-24T15:42:51.817Z,67.70
2023-04-24T15:45:18.978Z,67.54
2023-04-24T15:47:49.505Z,67.99
2023-04-24T15:50:17.215Z,67.94
2023-04-24T15:52:44.637Z,67.88
2023-04-24T15:55:12.176Z,67.86
2023-04-24T15:57:40.160Z,67.97
2023-04-24T16:00:08.048Z,68.40
2023-04-24T16:02:41.486Z,68.75
2023-04-24T16:05:09.056Z,68.81
2023-04-24T16:07:36.406Z,69.02
2023-04-24T16:10:03.738Z,69.50
2023-04-24T16:12:30.937Z,69.52
2023-04-24T16:14:58.427Z,69.12
2023-04-24T16:17:25.672Z,69.88
2023-04-24T16:19:52.790Z,70.75
2023-04-24T16:22:19.904Z,71.10
2023-04-24T16:24:48.236Z,71.83
2023-04-24T16:27:16.026Z,72.24
2023-04-24T16:29:43.222Z,73.87
2023-04-24T16:32:11.282Z,75.46
2023-04-24T16:34:38.404Z,77.28
2023-04-24T16:37:06.620Z,78.79
2023-04-24T16:39:34.414Z,80.49
2023-04-24T16:42:02.087Z,81.63
2023-04-24T16:44:29.329Z,82.59
2023-04-24T16:46:56.953Z,83.75
2023-04-24T16:49:24.317Z,84.48
2023-04-24T16:51:51.555Z,85.25
2023-04-24T16:54:18.654Z,85.77
2023-04-24T16:56:45.944Z,86.34
2023-04-24T16:59:13.140Z,86.55
2023-04-24T17:01:40.204Z,87.04
2023-04-24T17:04:07.446Z,87.69
2023-04-24T17:06:35.176Z,87.97
2023-04-24T17:09:02.747Z,88.30
2023-04-24T17:11:31.242Z,88.76
2023-04-24T17:14:01.463Z,88.81
2023-04-24T17:16:29.251Z,88.82
2023-04-24T17:18:56.450Z,88.55
2023-04-24T17:21:23.551Z,88.77
2023-04-24T17:23:51.121Z,89.10
2023-04-24T17:26:18.354Z,89.37
2023-04-24T17:28:45.563Z,89.30
2023-04-24T17:31:12.812Z,89.51
2023-04-24T17:33:40.005Z,90.10
2023-04-24T17:36:07.542Z,90.13
2023-04-24T17:38:34.813Z,90.23
2023-04-24T17:41:01.984Z,89.97
2023-04-24T17:43:29.062Z,90.39
2023-04-24T17:45:56.739Z,89.81
2023-04-24T17:48:23.980Z,89.65
2023-04-24T17:50:51.898Z,90.22
2023-04-24T17:53:19.233Z,90.01
2023-04-24T17:55:46.767Z,89.73
2023-04-24T17:58:14.870Z,90.39
2023-04-24T18:00:42.563Z,91.06
2023-04-24T18:03:10.538Z,90.98
2023-04-24T18:05:39.228Z,91.03
2023-04-24T18:08:07.607Z,91.08
2023-04-24T18:10:37.713Z,91.24
2023-04-24T18:13:05.817Z,91.38
2023-04-24T18:15:33.098Z,91.29
2023-04-24T18:18:00.603Z,91.86
2023-04-24T18:20:27.951Z,91.57
2023-04-24T18:22:55.059Z,91.42
2023-04-24T18:25:27.142Z,91.42
2023-04-24T18:27:55.985Z,91.26
2023-04-24T18:30:24.295Z,91.88
2023-04-24T18:32:53.516Z,91.94
2023-04-24T18:35:21.902Z,92.21
2023-04-24T18:37:50.261Z,92.43
2023-04-24T18:40:17.842Z,92.26
2023-04-24T18:42:45.282Z,92.52
2023-04-24T18:45:14.893Z,92.53
2023-04-24T18:47:43.625Z,92.58
2023-04-24T18:50:11.699Z,92.73
2023-04-24T18:52:39.460Z,92.96
2023-04-24T18:55:07.266Z,92.70
2023-04-24T18:57:34.607Z,92.56
2023-04-24T19:00:02.279Z,92.32
2023-04-24T19:02:29.666Z,92.63
2023-04-24T19:04:56.866Z,92.55
2023-04-24T19:07:24.374Z,92.32
2023-04-24T19:09:51.563Z,92.32
2023-04-24T19:12:20.345Z,92.05
2023-04-24T19:14:49.171Z,91.88
2023-04-24T19:17:22.544Z,91.77
2023-04-24T19:19:49.830Z,91.62
2023-04-24T19:22:18.088Z,91.79
2023-04-24T19:24:45.207Z,91.68
2023-04-24T19:27:12.736Z,91.86
2023-04-24T19:29:42.194Z,91.79
2023-04-24T19:32:09.548Z,91.69
2023-04-24T19:34:38.390Z,91.46
2023-04-24T19:37:08.147Z,91.59
2023-04-24T19:39:35.899Z,91.39
2023-04-24T19:42:07.386Z,91.65
2023-04-24T19:44:34.736Z,91.02
2023-04-24T19:47:01.998Z,90.17
2023-04-24T19:49:29.150Z,90.37
2023-04-24T19:51:56.286Z,89.98
2023-04-24T19:54:24.009Z,90.56
2023-04-24T19:56:51.265Z,89.85
2023-04-24T19:59:18.374Z,89.86
2023-04-24T20:01:45.577Z,89.81
2023-04-24T20:04:13.073Z,89.65
2023-04-24T20:06:40.417Z,89.50
2023-04-24T20:09:07.583Z,88.85
2023-04-24T20:11:35.149Z,87.87
2023-04-24T20:14:03.941Z,87.50
2023-04-24T20:16:31.460Z,87.60
2023-04-24T20:18:59.187Z,87.41
2023-04-24T20:21:26.904Z,87.22
2023-04-24T20:23:54.101Z,87.46
2023-04-24T20:26:21.701Z,87.16
2023-04-24T20:28:49.370Z,87.22
2023-04-24T20:31:17.148Z,87.60
2023-04-24T20:33:45.734Z,88.17
2023-04-24T20:36:12.889Z,87.83
2023-04-24T20:38:40.186Z,88.05
2023-04-24T20:41:09.063Z,88.34
2023-04-24T20:43:36.660Z,88.19
2023-04-24T20:46:03.880Z,88.62
2023-04-24T20:48:31.385Z,89.31
2023-04-24T20:50:58.494Z,89.96
2023-04-24T20:53:25.658Z,89.42
2023-04-24T20:55:53.031Z,89.64
2023-04-24T20:58:21.214Z,89.50
2023-04-24T21:00:48.773Z,89.41
2023-04-24T21:03:16.219Z,89.66
2023-04-24T21:05:43.604Z,90.01
2023-04-24T21:08:10.744Z,90.11
2023-04-24T21:10:37.792Z,90.48
2023-04-24T21:13:04.942Z,90.47
2023-04-24T21:15:32.079Z,91.27
2023-04-24T21:17:59.240Z,91.25
2023-04-24T21:20:26.924Z,91.32
2023-04-24T21:22:53.938Z,91.34
2023-04-24T21:25:21.015Z,91.48
2023-04-24T21:27:48.356Z,91.46
2023-04-24T21:30:15.574Z,91.64
2023-04-24T21:32:42.789Z,91.67
2023-04-24T21:35:10.108Z,92.13
2023-04-24T21:37:39.374Z,92.40
2023-04-24T21:40:08.077Z,92.70
2023-04-24T21:42:35.649Z,92.65
2023-04-24T21:45:03.268Z,92.30
2023-04-24T21:47:30.523Z,92.50
2023-04-24T21:49:57.692Z,92.98
2023-04-24T21:52:24.801Z,93.39
2023-04-24T21:54:51.843Z,93.12
2023-04-24T21:57:19.289Z,93.35
2023-04-24T21:59:47.568Z,93.09
2023-04-24T22:02:15.047Z,93.81
2023-04-24T22:04:42.418Z,93.98
2023-04-24T22:07:10.065Z,94.15
2023-04-24T22:09:37.095Z,93.63
2023-04-24T22:12:05.720Z,93.80
2023-04-24T22:14:33.147Z,93.81
2023-04-24T22:17:00.321Z,93.71
2023-04-24T22:19:28.443Z,93.97
2023-04-24T22:21:55.617Z,93.55
2023-04-24T22:24:22.852Z,94.13
2023-04-24T22:26:50.153Z,93.93
2023-04-24T22:29:17.273Z,93.91
2023-04-24T22:31:45.606Z,94.45
2023-04-24T22:34:12.732Z,94.28
2023-04-24T22:36:39.799Z,94.48
2023-04-24T22:39:07.540Z,94.75
2023-04-24T22:41:34.784Z,94.58
2023-04-24T22:44:02.415Z,94.80
2023-04-24T22:46:31.255Z,95.18
2023-04-24T22:48:58.623Z,95.16
2023-04-24T22:51:26.278Z,95.18
2023-04-24T22:53:54.865Z,94.58
2023-04-24T22:56:22.059Z,94.85
2023-04-24T22:58:49.773Z,95.38
2023-04-24T23:01:17.603Z,95.22
2023-04-24T23:03:44.893Z,94.67
2023-04-24T23:06:11.964Z,95.25
2023-04-24T23:08:39.113Z,94.35
2023-04-24T23:11:06.319Z,95.28
2023-04-24T23:13:33.604Z,94.91
2023-04-24T23:16:00.831Z,95.30
2023-04-24T23:18:28.013Z,95.11
2023-04-24T23:20:55.212Z,94.74
2023-04-24T23:23:22.283Z,94.63
2023-04-24T23:25:49.300Z,94.54
2023-04-24T23:28:16.443Z,94.38
2023-04-24T23:30:43.613Z,94.54
2023-04-24T23:33:11.099Z,94.11
2023-04-24T23:35:38.323Z,94.08
2023-04-24T23:38:05.517Z,93.27
2023-04-24T23:40:32.636Z,91.79
2023-04-24T23:43:06.669Z,91.19
2023-04-24T23:45:34.994Z,91.21
2023-04-24T23:48:02.157Z,90.69
2023-04-24T23:50:29.324Z,90.76
2023-04-24T23:52:56.733Z,90.60
2023-04-24T23:55:23.883Z,89.51
2023-04-24T23:57:50.944Z,89.36
